sensor_id;sensor_type;location;lat;lon;timestamp;pressure;altitude;pressure_sealevel;temperature
34125;BMP280;20110;53.120;5.786;2023-02-28T00:00:50;103306.25;;;10.90
34125;BMP280;20110;53.120;5.786;2023-02-28T00:03:16;103298.13;;;10.93
34125;BMP280;20110;53.120;5.786;2023-02-28T00:05:43;103299.13;;;10.96
34125;BMP280;20110;53.120;5.786;2023-02-28T00:08:09;103288.22;;;10.94
34125;BMP280;20110;53.120;5.786;2023-02-28T00:10:35;103288.13;;;10.79
34125;BMP280;20110;53.120;5.786;2023-02-28T00:13:05;103289.34;;;10.69
34125;BMP280;20110;53.120;5.786;2023-02-28T00:15:33;103245.56;;;10.19
34125;BMP280;20110;53.120;5.786;2023-02-28T00:17:59;103182.56;;;9.64
34125;BMP280;20110;53.120;5.786;2023-02-28T00:20:25;103280.53;;;10.17
34125;BMP280;20110;53.120;5.786;2023-02-28T00:22:53;103285.69;;;10.12
34125;BMP280;20110;53.120;5.786;2023-02-28T00:25:24;103282.28;;;10.02
34125;BMP280;20110;53.120;5.786;2023-02-28T00:27:50;103262.63;;;9.81
34125;BMP280;20110;53.120;5.786;2023-02-28T00:30:22;103244.19;;;9.59
34125;BMP280;20110;53.120;5.786;2023-02-28T00:32:50;103220.44;;;9.56
34125;BMP280;20110;53.120;5.786;2023-02-28T00:35:16;103293.50;;;10.06
34125;BMP280;20110;53.120;5.786;2023-02-28T00:37:43;103270.31;;;10.07
34125;BMP280;20110;53.120;5.786;2023-02-28T00:40:09;103269.44;;;10.28
34125;BMP280;20110;53.120;5.786;2023-02-28T00:42:36;103138.06;;;9.59
34125;BMP280;20110;53.120;5.786;2023-02-28T00:45:04;103285.13;;;10.77
34125;BMP280;20110;53.120;5.786;2023-02-28T00:47:31;103278.34;;;10.85
34125;BMP280;20110;53.120;5.786;2023-02-28T00:49:57;103057.16;;;9.46
34125;BMP280;20110;53.120;5.786;2023-02-28T00:52:23;103155.41;;;10.15
34125;BMP280;20110;53.120;5.786;2023-02-28T00:54:49;103294.22;;;11.03
34125;BMP280;20110;53.120;5.786;2023-02-28T00:57:15;103291.41;;;11.07
34125;BMP280;20110;53.120;5.786;2023-02-28T00:59:40;103163.34;;;10.33
34125;BMP280;20110;53.120;5.786;2023-02-28T01:02:06;103133.28;;;10.18
34125;BMP280;20110;53.120;5.786;2023-02-28T01:04:32;103286.47;;;11.24
34125;BMP280;20110;53.120;5.786;2023-02-28T01:06:58;103288.16;;;11.36
34125;BMP280;20110;53.120;5.786;2023-02-28T01:09:24;103281.41;;;11.35
34125;BMP280;20110;53.120;5.786;2023-02-28T01:11:50;103231.44;;;11.06
34125;BMP280;20110;53.120;5.786;2023-02-28T01:14:17;103253.44;;;11.07
34125;BMP280;20110;53.120;5.786;2023-02-28T01:16:44;103241.16;;;10.76
34125;BMP280;20110;53.120;5.786;2023-02-28T01:19:10;103198.47;;;10.28
34125;BMP280;20110;53.120;5.786;2023-02-28T01:21:36;103250.53;;;10.44
34125;BMP280;20110;53.120;5.786;2023-02-28T01:24:04;103288.91;;;10.52
34125;BMP280;20110;53.120;5.786;2023-02-28T01:26:30;103278.28;;;10.52
34125;BMP280;20110;53.120;5.786;2023-02-28T01:28:57;103285.31;;;10.64
34125;BMP280;20110;53.120;5.786;2023-02-28T01:31:23;103194.81;;;10.08
34125;BMP280;20110;53.120;5.786;2023-02-28T01:33:49;103162.81;;;9.93
34125;BMP280;20110;53.120;5.786;2023-02-28T01:36:21;103227.78;;;10.43
34125;BMP280;20110;53.120;5.786;2023-02-28T01:38:48;103127.75;;;9.71
34125;BMP280;20110;53.120;5.786;2023-02-28T01:41:30;103121.81;;;9.48
34125;BMP280;20110;53.120;5.786;2023-02-28T01:47:05;103242.16;;;10.09
34125;BMP280;20110;53.120;5.786;2023-02-28T01:49:31;103233.47;;;9.90
34125;BMP280;20110;53.120;5.786;2023-02-28T01:51:57;103133.47;;;9.23
34125;BMP280;20110;53.120;5.786;2023-02-28T01:54:30;103236.28;;;10.05
34125;BMP280;20110;53.120;5.786;2023-02-28T01:57:09;103234.16;;;10.37
34125;BMP280;20110;53.120;5.786;2023-02-28T02:00:00;103227.06;;;10.43
34125;BMP280;20110;53.120;5.786;2023-02-28T02:02:28;103175.94;;;9.96
34125;BMP280;20110;53.120;5.786;2023-02-28T02:05:06;103234.16;;;10.37
34125;BMP280;20110;53.120;5.786;2023-02-28T02:07:38;103240.50;;;10.48
34125;BMP280;20110;53.120;5.786;2023-02-28T02:10:16;103237.22;;;10.53
34125;BMP280;20110;53.120;5.786;2023-02-28T02:25:42;103241.94;;;10.58
34125;BMP280;20110;53.120;5.786;2023-02-28T02:40:37;103067.63;;;9.22
34125;BMP280;20110;53.120;5.786;2023-02-28T02:43:48;103224.28;;;10.28
34125;BMP280;20110;53.120;5.786;2023-02-28T02:46:44;103231.94;;;10.35
34125;BMP280;20110;53.120;5.786;2023-02-28T02:49:24;103222.94;;;10.42
34125;BMP280;20110;53.120;5.786;2023-02-28T02:51:53;103103.13;;;9.70
34125;BMP280;20110;53.120;5.786;2023-02-28T02:54:30;103219.06;;;10.61
34125;BMP280;20110;53.120;5.786;2023-02-28T02:57:03;103222.41;;;10.70
34125;BMP280;20110;53.120;5.786;2023-02-28T02:59:31;103055.81;;;9.69
34125;BMP280;20110;53.120;5.786;2023-02-28T03:02:03;103218.34;;;10.93
34125;BMP280;20110;53.120;5.786;2023-02-28T03:04:42;103223.56;;;11.12
34125;BMP280;20110;53.120;5.786;2023-02-28T03:07:08;103147.09;;;10.74
34125;BMP280;20110;53.120;5.786;2023-02-28T03:09:34;103216.94;;;11.31
34125;BMP280;20110;53.120;5.786;2023-02-28T03:12:06;103208.88;;;11.25
34125;BMP280;20110;53.120;5.786;2023-02-28T03:17:27;103218.63;;;11.19
34125;BMP280;20110;53.120;5.786;2023-02-28T03:20:07;103216.28;;;10.88
34125;BMP280;20110;53.120;5.786;2023-02-28T03:23:01;103176.31;;;10.31
34125;BMP280;20110;53.120;5.786;2023-02-28T03:26:00;103213.22;;;10.39
34125;BMP280;20110;53.120;5.786;2023-02-28T03:29:07;103212.63;;;10.34
34125;BMP280;20110;53.120;5.786;2023-02-28T03:31:50;103201.16;;;10.19
34125;BMP280;20110;53.120;5.786;2023-02-28T03:34:34;103152.34;;;9.80
34125;BMP280;20110;53.120;5.786;2023-02-28T03:37:12;103188.50;;;9.96
34125;BMP280;20110;53.120;5.786;2023-02-28T03:39:59;103181.56;;;9.89
34125;BMP280;20110;53.120;5.786;2023-02-28T03:42:34;103198.50;;;10.01
34125;BMP280;20110;53.120;5.786;2023-02-28T03:45:11;103160.00;;;9.78
34125;BMP280;20110;53.120;5.786;2023-02-28T03:48:00;103142.78;;;9.64
34125;BMP280;20110;53.120;5.786;2023-02-28T03:50:46;103143.69;;;9.61
34125;BMP280;20110;53.120;5.786;2023-02-28T03:53:29;103185.66;;;10.09
34125;BMP280;20110;53.120;5.786;2023-02-28T03:56:11;103189.78;;;10.10
34125;BMP280;20110;53.120;5.786;2023-02-28T04:01:37;103157.66;;;9.98
34125;BMP280;20110;53.120;5.786;2023-02-28T04:04:04;103154.53;;;10.27
34125;BMP280;20110;53.120;5.786;2023-02-28T04:06:32;103109.19;;;10.31
34125;BMP280;20110;53.120;5.786;2023-02-28T04:08:59;103168.91;;;10.78
34125;BMP280;20110;53.120;5.786;2023-02-28T04:11:49;103185.81;;;10.65
34125;BMP280;20110;53.120;5.786;2023-02-28T04:14:17;103037.84;;;9.54
34125;BMP280;20110;53.120;5.786;2023-02-28T04:16:44;103127.25;;;9.99
34125;BMP280;20110;53.120;5.786;2023-02-28T04:19:12;103195.34;;;10.48
34125;BMP280;20110;53.120;5.786;2023-02-28T04:21:45;103201.78;;;10.56
34125;BMP280;20110;53.120;5.786;2023-02-28T04:24:21;103197.66;;;10.55
34125;BMP280;20110;53.120;5.786;2023-02-28T04:26:52;103198.25;;;10.59
34125;BMP280;20110;53.120;5.786;2023-02-28T04:29:31;103195.56;;;10.68
34125;BMP280;20110;53.120;5.786;2023-02-28T04:32:01;103192.09;;;10.77
34125;BMP280;20110;53.120;5.786;2023-02-28T04:34:30;103164.53;;;10.65
34125;BMP280;20110;53.120;5.786;2023-02-28T04:36:56;103138.34;;;10.49
34125;BMP280;20110;53.120;5.786;2023-02-28T04:39:24;103131.41;;;10.43
34125;BMP280;20110;53.120;5.786;2023-02-28T04:41:50;103188.56;;;10.80
34125;BMP280;20110;53.120;5.786;2023-02-28T04:44:17;103191.22;;;10.80
34125;BMP280;20110;53.120;5.786;2023-02-28T04:46:43;103200.34;;;10.88
34125;BMP280;20110;53.120;5.786;2023-02-28T04:49:13;103189.59;;;10.83
34125;BMP280;20110;53.120;5.786;2023-02-28T04:51:39;103202.38;;;10.93
34125;BMP280;20110;53.120;5.786;2023-02-28T04:54:05;103164.22;;;10.73
34125;BMP280;20110;53.120;5.786;2023-02-28T04:56:31;103155.06;;;10.74
34125;BMP280;20110;53.120;5.786;2023-02-28T04:58:57;103187.84;;;11.03
34125;BMP280;20110;53.120;5.786;2023-02-28T05:01:29;103104.84;;;10.43
34125;BMP280;20110;53.120;5.786;2023-02-28T05:03:58;103089.19;;;10.45
34125;BMP280;20110;53.120;5.786;2023-02-28T05:06:29;103087.63;;;10.38
34125;BMP280;20110;53.120;5.786;2023-02-28T05:08:56;103205.19;;;11.23
34125;BMP280;20110;53.120;5.786;2023-02-28T05:11:30;103189.16;;;11.08
34125;BMP280;20110;53.120;5.786;2023-02-28T05:14:10;103188.28;;;11.35
34125;BMP280;20110;53.120;5.786;2023-02-28T05:16:37;103172.22;;;11.44
34125;BMP280;20110;53.120;5.786;2023-02-28T05:19:03;103206.72;;;11.77
34125;BMP280;20110;53.120;5.786;2023-02-28T05:21:41;103212.56;;;11.81
34125;BMP280;20110;53.120;5.786;2023-02-28T05:24:11;103206.91;;;11.88
34125;BMP280;20110;53.120;5.786;2023-02-28T05:26:41;103199.66;;;11.89
34125;BMP280;20110;53.120;5.786;2023-02-28T05:29:07;103199.94;;;11.91
34125;BMP280;20110;53.120;5.786;2023-02-28T05:31:35;103196.16;;;11.83
34125;BMP280;20110;53.120;5.786;2023-02-28T05:34:02;103132.91;;;11.24
34125;BMP280;20110;53.120;5.786;2023-02-28T05:36:30;103168.78;;;11.29
34125;BMP280;20110;53.120;5.786;2023-02-28T05:38:55;103208.91;;;11.40
34125;BMP280;20110;53.120;5.786;2023-02-28T05:41:21;103214.88;;;11.35
34125;BMP280;20110;53.120;5.786;2023-02-28T05:43:48;103226.84;;;11.30
34125;BMP280;20110;53.120;5.786;2023-02-28T05:46:15;103214.91;;;11.26
34125;BMP280;20110;53.120;5.786;2023-02-28T05:48:45;103207.72;;;11.17
34125;BMP280;20110;53.120;5.786;2023-02-28T05:51:11;103160.94;;;10.78
34125;BMP280;20110;53.120;5.786;2023-02-28T05:53:37;103195.06;;;10.79
34125;BMP280;20110;53.120;5.786;2023-02-28T05:56:04;103206.03;;;10.72
34125;BMP280;20110;53.120;5.786;2023-02-28T05:58:30;103169.97;;;10.38
34125;BMP280;20110;53.120;5.786;2023-02-28T06:01:24;103191.63;;;10.46
34125;BMP280;20110;53.120;5.786;2023-02-28T06:03:50;103161.88;;;10.23
34125;BMP280;20110;53.120;5.786;2023-02-28T06:06:16;103179.16;;;10.19
34125;BMP280;20110;53.120;5.786;2023-02-28T06:08:42;103206.41;;;10.47
34125;BMP280;20110;53.120;5.786;2023-02-28T06:11:10;103157.19;;;10.09
34125;BMP280;20110;53.120;5.786;2023-02-28T06:13:35;103132.00;;;9.86
34125;BMP280;20110;53.120;5.786;2023-02-28T06:16:02;103200.72;;;10.21
34125;BMP280;20110;53.120;5.786;2023-02-28T06:18:27;103100.03;;;9.44
34125;BMP280;20110;53.120;5.786;2023-02-28T06:20:54;103098.28;;;9.50
34125;BMP280;20110;53.120;5.786;2023-02-28T06:23:21;103194.22;;;10.13
34125;BMP280;20110;53.120;5.786;2023-02-28T06:25:47;103184.03;;;10.02
34125;BMP280;20110;53.120;5.786;2023-02-28T06:28:13;103216.06;;;10.26
34125;BMP280;20110;53.120;5.786;2023-02-28T06:30:39;103190.41;;;10.05
34125;BMP280;20110;53.120;5.786;2023-02-28T06:33:05;103206.34;;;10.05
34125;BMP280;20110;53.120;5.786;2023-02-28T06:35:31;103219.88;;;10.07
34125;BMP280;20110;53.120;5.786;2023-02-28T06:37:57;103219.72;;;10.01
34125;BMP280;20110;53.120;5.786;2023-02-28T06:40:23;103151.00;;;9.48
34125;BMP280;20110;53.120;5.786;2023-02-28T06:42:49;103097.16;;;9.02
34125;BMP280;20110;53.120;5.786;2023-02-28T06:45:15;103219.59;;;9.86
34125;BMP280;20110;53.120;5.786;2023-02-28T06:47:41;103227.41;;;9.90
34125;BMP280;20110;53.120;5.786;2023-02-28T06:50:12;103193.47;;;9.57
34125;BMP280;20110;53.120;5.786;2023-02-28T06:52:38;103203.81;;;9.64
34125;BMP280;20110;53.120;5.786;2023-02-28T06:55:07;103176.09;;;9.38
34125;BMP280;20110;53.120;5.786;2023-02-28T06:57:35;103260.00;;;9.90
34125;BMP280;20110;53.120;5.786;2023-02-28T07:00:07;103251.16;;;9.84
34125;BMP280;20110;53.120;5.786;2023-02-28T07:02:35;103254.53;;;9.76
34125;BMP280;20110;53.120;5.786;2023-02-28T07:05:01;103270.59;;;9.81
34125;BMP280;20110;53.120;5.786;2023-02-28T07:07:27;103212.59;;;9.34
34125;BMP280;20110;53.120;5.786;2023-02-28T07:09:53;103277.97;;;9.68
34125;BMP280;20110;53.120;5.786;2023-02-28T07:12:19;103277.78;;;9.62
34125;BMP280;20110;53.120;5.786;2023-02-28T07:14:44;103263.63;;;9.47
34125;BMP280;20110;53.120;5.786;2023-02-28T07:17:11;103280.59;;;9.59
34125;BMP280;20110;53.120;5.786;2023-02-28T07:19:38;103275.53;;;9.43
34125;BMP280;20110;53.120;5.786;2023-02-28T07:22:05;103283.38;;;9.55
34125;BMP280;20110;53.120;5.786;2023-02-28T07:24:31;103258.31;;;9.38
34125;BMP280;20110;53.120;5.786;2023-02-28T07:26:57;103274.09;;;9.51
34125;BMP280;20110;53.120;5.786;2023-02-28T07:29:25;103249.44;;;9.32
34125;BMP280;20110;53.120;5.786;2023-02-28T07:31:50;103267.84;;;9.36
34125;BMP280;20110;53.120;5.786;2023-02-28T07:34:19;103290.13;;;9.47
34125;BMP280;20110;53.120;5.786;2023-02-28T07:36:45;103259.44;;;9.28
34125;BMP280;20110;53.120;5.786;2023-02-28T07:39:11;103267.06;;;9.26
34125;BMP280;20110;53.120;5.786;2023-02-28T07:41:37;103304.03;;;9.51
34125;BMP280;20110;53.120;5.786;2023-02-28T07:44:10;103259.44;;;9.28
34125;BMP280;20110;53.120;5.786;2023-02-28T07:46:36;103298.84;;;9.57
34125;BMP280;20110;53.120;5.786;2023-02-28T07:49:02;103289.13;;;9.54
34125;BMP280;20110;53.120;5.786;2023-02-28T07:51:29;103230.50;;;9.12
34125;BMP280;20110;53.120;5.786;2023-02-28T07:53:56;103275.28;;;9.50
34125;BMP280;20110;53.120;5.786;2023-02-28T07:56:22;103236.88;;;9.23
34125;BMP280;20110;53.120;5.786;2023-02-28T07:58:48;103268.06;;;9.59
34125;BMP280;20110;53.120;5.786;2023-02-28T08:01:15;103293.88;;;9.68
34125;BMP280;20110;53.120;5.786;2023-02-28T08:03:42;103304.66;;;9.74
34125;BMP280;20110;53.120;5.786;2023-02-28T08:06:18;103294.28;;;9.57
34125;BMP280;20110;53.120;5.786;2023-02-28T08:08:44;103311.13;;;9.63
34125;BMP280;20110;53.120;5.786;2023-02-28T08:11:10;103310.38;;;9.63
34125;BMP280;20110;53.120;5.786;2023-02-28T08:13:36;103293.97;;;9.55
34125;BMP280;20110;53.120;5.786;2023-02-28T08:16:03;103228.72;;;9.09
34125;BMP280;20110;53.120;5.786;2023-02-28T08:18:29;103300.75;;;9.56
34125;BMP280;20110;53.120;5.786;2023-02-28T08:20:55;103284.94;;;9.35
34125;BMP280;20110;53.120;5.786;2023-02-28T08:23:22;103302.09;;;9.52
34125;BMP280;20110;53.120;5.786;2023-02-28T08:25:57;103318.16;;;9.57
34125;BMP280;20110;53.120;5.786;2023-02-28T08:28:23;103315.66;;;9.54
34125;BMP280;20110;53.120;5.786;2023-02-28T08:30:49;103320.38;;;9.59
34125;BMP280;20110;53.120;5.786;2023-02-28T08:33:15;103156.47;;;8.55
34125;BMP280;20110;53.120;5.786;2023-02-28T08:35:41;103317.47;;;9.66
34125;BMP280;20110;53.120;5.786;2023-02-28T08:38:07;103307.59;;;9.66
34125;BMP280;20110;53.120;5.786;2023-02-28T08:40:33;103313.75;;;9.63
34125;BMP280;20110;53.120;5.786;2023-02-28T08:42:58;103248.78;;;9.19
34125;BMP280;20110;53.120;5.786;2023-02-28T08:45:25;103336.94;;;9.81
34125;BMP280;20110;53.120;5.786;2023-02-28T08:47:51;103321.47;;;9.71
34125;BMP280;20110;53.120;5.786;2023-02-28T08:50:18;103307.72;;;9.63
34125;BMP280;20110;53.120;5.786;2023-02-28T08:52:44;103343.50;;;9.98
34125;BMP280;20110;53.120;5.786;2023-02-28T08:55:10;103269.69;;;9.66
34125;BMP280;20110;53.120;5.786;2023-02-28T08:57:36;103299.25;;;9.95
34125;BMP280;20110;53.120;5.786;2023-02-28T09:00:04;103331.28;;;10.28
34125;BMP280;20110;53.120;5.786;2023-02-28T09:02:33;103338.38;;;10.41
34125;BMP280;20110;53.120;5.786;2023-02-28T09:04:59;103308.84;;;10.29
34125;BMP280;20110;53.120;5.786;2023-02-28T09:07:25;103320.34;;;10.45
34125;BMP280;20110;53.120;5.786;2023-02-28T09:09:51;103339.38;;;10.70
34125;BMP280;20110;53.120;5.786;2023-02-28T09:12:23;103327.09;;;10.64
34125;BMP280;20110;53.120;5.786;2023-02-28T09:14:49;103319.13;;;10.64
34125;BMP280;20110;53.120;5.786;2023-02-28T09:17:15;103345.25;;;10.84
34125;BMP280;20110;53.120;5.786;2023-02-28T09:19:41;103326.06;;;10.80
34125;BMP280;20110;53.120;5.786;2023-02-28T09:22:09;103351.53;;;11.14
34125;BMP280;20110;53.120;5.786;2023-02-28T09:24:37;103298.25;;;10.90
34125;BMP280;20110;53.120;5.786;2023-02-28T09:27:03;103340.69;;;11.26
34125;BMP280;20110;53.120;5.786;2023-02-28T09:29:31;103335.06;;;11.33
34125;BMP280;20110;53.120;5.786;2023-02-28T09:31:57;103330.88;;;11.42
34125;BMP280;20110;53.120;5.786;2023-02-28T09:34:27;103325.66;;;11.47
34125;BMP280;20110;53.120;5.786;2023-02-28T09:36:55;103293.25;;;11.25
34125;BMP280;20110;53.120;5.786;2023-02-28T09:39:22;103348.75;;;11.65
34125;BMP280;20110;53.120;5.786;2023-02-28T09:41:52;103342.81;;;11.70
34125;BMP280;20110;53.120;5.786;2023-02-28T09:44:35;103347.41;;;11.69
34125;BMP280;20110;53.120;5.786;2023-02-28T09:47:31;103348.66;;;11.83
34125;BMP280;20110;53.120;5.786;2023-02-28T09:50:17;103349.56;;;12.04
34125;BMP280;20110;53.120;5.786;2023-02-28T09:52:48;103357.91;;;12.11
34125;BMP280;20110;53.120;5.786;2023-02-28T09:57:42;103362.94;;;12.33
34125;BMP280;20110;53.120;5.786;2023-02-28T10:00:37;103354.94;;;12.48
34125;BMP280;20110;53.120;5.786;2023-02-28T10:03:36;103376.19;;;12.72
34125;BMP280;20110;53.120;5.786;2023-02-28T10:06:19;103372.41;;;12.93
34125;BMP280;20110;53.120;5.786;2023-02-28T10:11:20;103289.16;;;12.89
34125;BMP280;20110;53.120;5.786;2023-02-28T10:14:16;103356.22;;;13.32
34125;BMP280;20110;53.120;5.786;2023-02-28T10:16:50;103344.53;;;13.29
34125;BMP280;20110;53.120;5.786;2023-02-28T10:19:32;103305.88;;;13.04
34125;BMP280;20110;53.120;5.786;2023-02-28T10:24:52;103343.66;;;13.73
34125;BMP280;20110;53.120;5.786;2023-02-28T10:27:26;103342.53;;;14.05
34125;BMP280;20110;53.120;5.786;2023-02-28T10:30:00;103351.78;;;14.67
34125;BMP280;20110;53.120;5.786;2023-02-28T10:32:32;103341.56;;;15.67
34125;BMP280;20110;53.120;5.786;2023-02-28T10:35:19;103339.19;;;16.31
34125;BMP280;20110;53.120;5.786;2023-02-28T10:37:53;103297.91;;;16.56
34125;BMP280;20110;53.120;5.786;2023-02-28T10:45:30;103349.56;;;17.83
34125;BMP280;20110;53.120;5.786;2023-02-28T10:50:56;103336.34;;;18.15
34125;BMP280;20110;53.120;5.786;2023-02-28T10:56:22;103318.03;;;18.38
34125;BMP280;20110;53.120;5.786;2023-02-28T10:59:02;103335.50;;;18.50
34125;BMP280;20110;53.120;5.786;2023-02-28T11:01:41;103322.38;;;18.65
34125;BMP280;20110;53.120;5.786;2023-02-28T11:07:20;103310.13;;;17.61
34125;BMP280;20110;53.120;5.786;2023-02-28T11:09:50;103287.56;;;17.40
34125;BMP280;20110;53.120;5.786;2023-02-28T11:12:36;103329.53;;;18.14
34125;BMP280;20110;53.120;5.786;2023-02-28T11:15:24;103338.88;;;18.75
34125;BMP280;20110;53.120;5.786;2023-02-28T11:20:39;103293.16;;;19.25
34125;BMP280;20110;53.120;5.786;2023-02-28T11:23:12;103342.19;;;19.88
34125;BMP280;20110;53.120;5.786;2023-02-28T11:25:39;103330.06;;;20.07
34125;BMP280;20110;53.120;5.786;2023-02-28T11:31:16;103289.03;;;19.69
34125;BMP280;20110;53.120;5.786;2023-02-28T11:33:52;103332.16;;;19.56
34125;BMP280;20110;53.120;5.786;2023-02-28T11:36:30;103327.50;;;19.06
34125;BMP280;20110;53.120;5.786;2023-02-28T11:39:01;103251.84;;;18.05
34125;BMP280;20110;53.120;5.786;2023-02-28T11:42:15;103330.03;;;18.80
34125;BMP280;20110;53.120;5.786;2023-02-28T11:48:14;103326.44;;;19.09
34125;BMP280;20110;53.120;5.786;2023-02-28T11:51:05;103324.84;;;19.38
34125;BMP280;20110;53.120;5.786;2023-02-28T11:53:52;103295.72;;;19.50
34125;BMP280;20110;53.120;5.786;2023-02-28T11:57:22;103329.66;;;20.03
34125;BMP280;20110;53.120;5.786;2023-02-28T12:03:41;103326.19;;;20.56
34125;BMP280;20110;53.120;5.786;2023-02-28T12:18:30;103323.88;;;20.60
34125;BMP280;20110;53.120;5.786;2023-02-28T12:21:24;103321.09;;;21.20
34125;BMP280;20110;53.120;5.786;2023-02-28T12:26:44;103297.03;;;21.50
34125;BMP280;20110;53.120;5.786;2023-02-28T12:32:25;103297.63;;;21.35
34125;BMP280;20110;53.120;5.786;2023-02-28T12:35:06;103300.56;;;21.66
34125;BMP280;20110;53.120;5.786;2023-02-28T12:38:04;103301.31;;;21.74
34125;BMP280;20110;53.120;5.786;2023-02-28T12:41:03;103299.31;;;22.03
34125;BMP280;20110;53.120;5.786;2023-02-28T12:44:16;103277.31;;;22.06
34125;BMP280;20110;53.120;5.786;2023-02-28T12:46:45;103313.00;;;22.41
34125;BMP280;20110;53.120;5.786;2023-02-28T12:49:25;103300.97;;;22.65
34125;BMP280;20110;53.120;5.786;2023-02-28T12:51:53;103282.56;;;22.78
34125;BMP280;20110;53.120;5.786;2023-02-28T12:54:44;103262.34;;;22.05
34125;BMP280;20110;53.120;5.786;2023-02-28T12:57:43;103288.22;;;21.08
34125;BMP280;20110;53.120;5.786;2023-02-28T13:00:21;103276.31;;;20.09
34125;BMP280;20110;53.120;5.786;2023-02-28T13:09:28;103274.97;;;19.90
34125;BMP280;20110;53.120;5.786;2023-02-28T13:11:57;103238.09;;;20.32
34125;BMP280;20110;53.120;5.786;2023-02-28T13:19:44;103264.38;;;19.79
34125;BMP280;20110;53.120;5.786;2023-02-28T13:22:43;103272.34;;;19.84
34125;BMP280;20110;53.120;5.786;2023-02-28T13:27:52;103265.97;;;20.81
34125;BMP280;20110;53.120;5.786;2023-02-28T13:33:29;103252.31;;;21.49
34125;BMP280;20110;53.120;5.786;2023-02-28T13:38:42;103243.19;;;21.31
34125;BMP280;20110;53.120;5.786;2023-02-28T13:44:09;103236.38;;;20.55
34125;BMP280;20110;53.120;5.786;2023-02-28T14:05:22;103193.66;;;18.45
34125;BMP280;20110;53.120;5.786;2023-02-28T14:07:58;103180.78;;;18.19
34125;BMP280;20110;53.120;5.786;2023-02-28T14:10:41;103253.44;;;18.38
34125;BMP280;20110;53.120;5.786;2023-02-28T14:13:44;103221.56;;;17.75
34125;BMP280;20110;53.120;5.786;2023-02-28T14:16:39;103224.88;;;17.62
34125;BMP280;20110;53.120;5.786;2023-02-28T14:19:21;103214.78;;;17.68
34125;BMP280;20110;53.120;5.786;2023-02-28T14:31:23;103242.00;;;16.77
34125;BMP280;20110;53.120;5.786;2023-02-28T14:34:26;103249.91;;;16.47
34125;BMP280;20110;53.120;5.786;2023-02-28T14:37:01;103191.75;;;15.97
34125;BMP280;20110;53.120;5.786;2023-02-28T14:39:28;103246.56;;;16.02
34125;BMP280;20110;53.120;5.786;2023-02-28T14:41:59;103187.13;;;15.48
34125;BMP280;20110;53.120;5.786;2023-02-28T14:44:30;103246.56;;;15.85
34125;BMP280;20110;53.120;5.786;2023-02-28T14:47:00;103247.28;;;15.80
34125;BMP280;20110;53.120;5.786;2023-02-28T14:49:36;103219.03;;;15.46
34125;BMP280;20110;53.120;5.786;2023-02-28T14:52:24;103236.31;;;15.33
34125;BMP280;20110;53.120;5.786;2023-02-28T14:54:56;103191.91;;;14.93
34125;BMP280;20110;53.120;5.786;2023-02-28T14:57:32;103222.31;;;15.01
34125;BMP280;20110;53.120;5.786;2023-02-28T15:00:21;103224.03;;;15.10
34125;BMP280;20110;53.120;5.786;2023-02-28T15:02:48;103221.13;;;15.08
34125;BMP280;20110;53.120;5.786;2023-02-28T15:07:43;103231.88;;;15.14
34125;BMP280;20110;53.120;5.786;2023-02-28T15:10:18;103222.34;;;15.07
34125;BMP280;20110;53.120;5.786;2023-02-28T15:12:56;103223.84;;;15.19
34125;BMP280;20110;53.120;5.786;2023-02-28T15:18:29;103226.25;;;15.17
34125;BMP280;20110;53.120;5.786;2023-02-28T15:21:02;103176.03;;;14.79
34125;BMP280;20110;53.120;5.786;2023-02-28T15:23:30;103181.34;;;14.73
34125;BMP280;20110;53.120;5.786;2023-02-28T15:25:57;103148.31;;;14.34
34125;BMP280;20110;53.120;5.786;2023-02-28T15:28:24;103204.91;;;14.63
34125;BMP280;20110;53.120;5.786;2023-02-28T15:31:00;103216.56;;;14.66
34125;BMP280;20110;53.120;5.786;2023-02-28T15:33:34;103145.75;;;14.08
34125;BMP280;20110;53.120;5.786;2023-02-28T15:36:29;103177.63;;;14.17
34125;BMP280;20110;53.120;5.786;2023-02-28T15:38:57;103204.00;;;14.35
34125;BMP280;20110;53.120;5.786;2023-02-28T15:41:30;103211.25;;;14.29
34125;BMP280;20110;53.120;5.786;2023-02-28T15:44:26;103191.19;;;14.08
34125;BMP280;20110;53.120;5.786;2023-02-28T15:47:06;103195.16;;;14.18
34125;BMP280;20110;53.120;5.786;2023-02-28T15:50:03;103155.13;;;13.61
34125;BMP280;20110;53.120;5.786;2023-02-28T15:52:43;103209.16;;;13.76
34125;BMP280;20110;53.120;5.786;2023-02-28T15:55:27;103168.78;;;13.42
34125;BMP280;20110;53.120;5.786;2023-02-28T15:57:57;103200.22;;;13.59
34125;BMP280;20110;53.120;5.786;2023-02-28T16:00:31;103183.97;;;13.36
34125;BMP280;20110;53.120;5.786;2023-02-28T16:02:58;103209.31;;;13.46
34125;BMP280;20110;53.120;5.786;2023-02-28T16:05:29;103210.03;;;13.41
34125;BMP280;20110;53.120;5.786;2023-02-28T16:08:14;103123.44;;;12.76
34125;BMP280;20110;53.120;5.786;2023-02-28T16:10:40;103174.22;;;13.07
34125;BMP280;20110;53.120;5.786;2023-02-28T16:13:08;103156.47;;;12.84
34125;BMP280;20110;53.120;5.786;2023-02-28T16:15:41;103205.81;;;13.14
34125;BMP280;20110;53.120;5.786;2023-02-28T16:18:11;103157.59;;;12.77
34125;BMP280;20110;53.120;5.786;2023-02-28T16:20:38;103137.53;;;12.62
34125;BMP280;20110;53.120;5.786;2023-02-28T16:23:04;103215.13;;;12.99
34125;BMP280;20110;53.120;5.786;2023-02-28T16:25:43;103220.47;;;12.84
34125;BMP280;20110;53.120;5.786;2023-02-28T16:28:29;103203.06;;;12.68
34125;BMP280;20110;53.120;5.786;2023-02-28T16:31:01;103176.41;;;12.33
34125;BMP280;20110;53.120;5.786;2023-02-28T16:33:29;103205.41;;;12.46
34125;BMP280;20110;53.120;5.786;2023-02-28T16:35:55;103194.16;;;12.22
34125;BMP280;20110;53.120;5.786;2023-02-28T16:38:21;103096.41;;;11.39
34125;BMP280;20110;53.120;5.786;2023-02-28T16:40:50;103224.56;;;12.15
34125;BMP280;20110;53.120;5.786;2023-02-28T16:43:22;103216.00;;;11.96
34125;BMP280;20110;53.120;5.786;2023-02-28T16:45:54;103192.47;;;11.65
34125;BMP280;20110;53.120;5.786;2023-02-28T16:48:21;103224.16;;;11.78
34125;BMP280;20110;53.120;5.786;2023-02-28T16:50:46;103151.28;;;11.22
34125;BMP280;20110;53.120;5.786;2023-02-28T16:53:12;103165.91;;;11.18